createdAt,value
2018-04-29T00:04:16.630Z,18.85
2018-04-29T00:06:44.161Z,18.90
2018-04-29T00:09:11.718Z,18.78
2018-04-29T00:11:39.222Z,18.81
2018-04-29T00:14:06.719Z,18.79
2018-04-29T00:16:34.177Z,18.71
2018-04-29T00:19:01.667Z,18.60
2018-04-29T00:21:29.148Z,18.59
2018-04-29T00:23:56.635Z,18.54
2018-04-29T00:26:24.116Z,18.55
2018-04-29T00:28:51.642Z,18.52
2018-04-29T00:31:19.449Z,18.41
2018-04-29T00:33:46.927Z,18.36
2018-04-29T00:36:14.429Z,18.46
2018-04-29T00:38:41.998Z,18.49
2018-04-29T00:41:09.433Z,18.52
2018-04-29T00:46:03.685Z,18.69
2018-04-29T00:48:31.168Z,18.62
2018-04-29T00:50:58.636Z,18.53
2018-04-29T00:53:26.116Z,18.52
2018-04-29T00:55:53.616Z,18.53
2018-04-29T00:58:21.119Z,18.38
2018-04-29T01:00:48.640Z,18.31
2018-04-29T01:03:16.102Z,18.27
2018-04-29T01:05:43.637Z,18.15
2018-04-29T01:08:11.168Z,18.00
2018-04-29T01:10:38.646Z,17.83
2018-04-29T01:13:06.134Z,17.73
2018-04-29T01:15:33.608Z,17.74
2018-04-29T01:18:01.133Z,17.62
2018-04-29T01:20:28.679Z,17.50
2018-04-29T01:22:56.228Z,17.42
2018-04-29T01:25:23.710Z,17.29
2018-04-29T01:27:51.201Z,17.19
2018-04-29T01:30:18.683Z,17.08
2018-04-29T01:32:46.182Z,16.96
2018-04-29T01:35:13.686Z,16.92
2018-04-29T01:37:41.186Z,16.85
2018-04-29T01:40:08.685Z,16.79
2018-04-29T01:42:36.184Z,16.80
2018-04-29T01:45:03.709Z,16.76
2018-04-29T01:47:31.202Z,16.72
2018-04-29T01:49:58.727Z,16.67
2018-04-29T01:52:26.220Z,16.62
2018-04-29T01:54:53.718Z,16.58
2018-04-29T01:57:21.228Z,16.59
2018-04-29T01:59:48.740Z,16.64
2018-04-29T02:02:16.229Z,16.69
2018-04-29T02:04:43.707Z,16.65
2018-04-29T02:07:11.224Z,16.59
2018-04-29T02:09:38.743Z,16.53
2018-04-29T02:12:06.255Z,16.44
2018-04-29T02:14:33.743Z,16.40
2018-04-29T02:17:01.235Z,16.43
2018-04-29T02:19:28.757Z,16.39
2018-04-29T02:21:56.262Z,16.44
2018-04-29T02:24:23.771Z,16.30
2018-04-29T02:26:51.241Z,16.22
2018-04-29T02:29:18.723Z,16.12
2018-04-29T02:31:46.223Z,16.08
2018-04-29T02:34:13.738Z,16.02
2018-04-29T02:36:41.232Z,16.03
2018-04-29T02:39:08.832Z,16.04
2018-04-29T02:41:36.331Z,15.98
2018-04-29T02:44:03.828Z,15.92
2018-04-29T02:46:31.351Z,15.84
2018-04-29T02:48:58.839Z,15.76
2018-04-29T02:51:26.339Z,15.71
2018-04-29T02:53:53.816Z,15.64
2018-04-29T02:56:21.305Z,15.61
2018-04-29T02:58:48.816Z,15.57
2018-04-29T03:01:16.328Z,15.65
2018-04-29T03:03:43.829Z,15.60
2018-04-29T03:06:11.351Z,15.57
2018-04-29T03:08:38.842Z,15.50
2018-04-29T03:11:06.315Z,15.40
2018-04-29T03:13:33.799Z,15.32
2018-04-29T03:16:01.247Z,15.25
2018-04-29T03:18:28.746Z,15.23
2018-04-29T03:20:56.236Z,15.17
2018-04-29T03:23:23.721Z,15.10
2018-04-29T03:25:51.228Z,15.16
2018-04-29T03:28:18.727Z,15.15
2018-04-29T03:30:46.237Z,15.16
2018-04-29T03:33:13.718Z,15.20
2018-04-29T03:35:41.308Z,15.23
2018-04-29T03:38:08.752Z,15.23
2018-04-29T03:40:36.246Z,15.23
2018-04-29T03:43:03.743Z,15.22
2018-04-29T03:45:31.236Z,15.25
2018-04-29T03:47:58.748Z,15.35
2018-04-29T03:50:26.251Z,15.34
2018-04-29T03:52:53.729Z,15.33
2018-04-29T03:58:06.609Z,15.28
2018-04-29T04:00:49.133Z,15.40
2018-04-29T04:03:28.361Z,15.44
2018-04-29T04:05:55.852Z,15.38
2018-04-29T04:08:23.860Z,15.36
2018-04-29T04:10:51.374Z,15.32
2018-04-29T04:13:19.431Z,15.30
2018-04-29T04:15:46.935Z,15.35
2018-04-29T04:18:15.479Z,15.37
2018-04-29T04:20:42.943Z,15.38
2018-04-29T04:23:10.455Z,15.46
2018-04-29T04:25:38.012Z,15.52
2018-04-29T04:28:05.505Z,15.59
2018-04-29T04:30:33.015Z,15.65
2018-04-29T04:33:00.519Z,15.72
2018-04-29T04:35:28.011Z,15.77
2018-04-29T04:37:55.520Z,15.81
2018-04-29T04:40:23.015Z,15.87
2018-04-29T04:42:50.493Z,15.96
2018-04-29T04:45:18.131Z,16.09
2018-04-29T04:47:45.645Z,16.23
2018-04-29T04:50:13.122Z,16.32
2018-04-29T04:52:40.609Z,16.38
2018-04-29T04:55:08.100Z,16.47
2018-04-29T04:57:35.586Z,16.54
2018-04-29T05:00:03.073Z,16.67
2018-04-29T05:02:30.563Z,16.75
2018-04-29T05:04:58.040Z,16.83
2018-04-29T05:09:58.177Z,17.03
2018-04-29T05:12:26.319Z,17.14
2018-04-29T05:14:53.802Z,17.24
2018-04-29T05:17:21.290Z,17.31
2018-04-29T05:19:48.796Z,17.42
2018-04-29T05:22:16.389Z,17.50
2018-04-29T05:24:43.877Z,17.59
2018-04-29T05:27:11.373Z,17.68
2018-04-29T05:29:38.852Z,17.74
2018-04-29T05:32:06.347Z,17.93
2018-04-29T05:34:33.847Z,17.97
2018-04-29T05:37:01.336Z,18.05
2018-04-29T05:39:28.814Z,18.12
2018-04-29T05:41:56.310Z,18.17
2018-04-29T05:44:23.829Z,18.27
2018-04-29T05:46:51.335Z,18.34
2018-04-29T05:49:18.868Z,18.43
2018-04-29T05:51:46.487Z,18.53
2018-04-29T05:54:13.980Z,18.64
2018-04-29T05:56:41.487Z,18.72
2018-04-29T05:59:09.089Z,18.79
2018-04-29T06:01:36.896Z,18.86
2018-04-29T06:04:04.419Z,18.95
2018-04-29T06:06:31.947Z,19.09
2018-04-29T06:09:00.211Z,19.14
2018-04-29T06:11:27.732Z,19.16
2018-04-29T06:13:55.225Z,19.18
2018-04-29T06:16:22.706Z,19.27
2018-04-29T06:18:50.193Z,19.30
2018-04-29T06:21:17.691Z,19.46
2018-04-29T06:23:46.104Z,19.55
2018-04-29T06:26:13.608Z,19.64
2018-04-29T06:28:41.123Z,19.76
2018-04-29T06:31:08.697Z,19.87
2018-04-29T06:33:36.228Z,20.04
2018-04-29T06:36:03.753Z,20.11
2018-04-29T06:38:31.266Z,20.19
2018-04-29T06:40:59.266Z,20.33
2018-04-29T06:43:26.807Z,20.41
2018-04-29T06:45:54.321Z,20.49
2018-04-29T06:48:21.822Z,20.63
2018-04-29T06:50:49.327Z,20.67
2018-04-29T06:53:16.922Z,20.83
2018-04-29T06:55:44.438Z,21.02
2018-04-29T06:58:11.920Z,21.13
2018-04-29T07:00:39.441Z,21.19
2018-04-29T07:03:06.947Z,21.17
2018-04-29T07:05:34.463Z,21.30
2018-04-29T07:08:02.033Z,21.51
2018-04-29T07:10:29.544Z,21.67
2018-04-29T07:12:57.037Z,21.82
2018-04-29T07:15:24.547Z,21.92
2018-04-29T07:17:52.055Z,21.99
2018-04-29T07:20:19.895Z,22.18
2018-04-29T07:22:47.379Z,22.28
2018-04-29T07:25:14.870Z,22.31
2018-04-29T07:27:42.351Z,22.36
2018-04-29T07:30:09.856Z,22.43
2018-04-29T07:32:37.373Z,22.50
2018-04-29T07:35:04.919Z,22.54
2018-04-29T07:37:32.451Z,22.76
2018-04-29T07:40:00.056Z,22.88
2018-04-29T07:42:27.554Z,22.95
2018-04-29T07:44:55.067Z,23.06
2018-04-29T07:47:22.629Z,23.13
2018-04-29T07:49:50.131Z,23.26
2018-04-29T07:52:17.747Z,23.27
2018-04-29T07:54:45.199Z,23.30
2018-04-29T07:57:12.811Z,23.39
2018-04-29T07:59:41.591Z,23.47
2018-04-29T08:02:09.128Z,23.61
2018-04-29T08:04:36.683Z,23.74
2018-04-29T08:07:04.218Z,23.76
2018-04-29T08:09:31.692Z,23.94
2018-04-29T08:11:59.166Z,24.00
2018-04-29T08:14:26.642Z,24.10
2018-04-29T08:16:54.215Z,24.17
2018-04-29T08:19:21.707Z,24.17
2018-04-29T08:21:49.268Z,24.17
2018-04-29T08:24:16.978Z,24.24
2018-04-29T08:26:44.507Z,24.34
2018-04-29T08:29:12.216Z,24.46
2018-04-29T08:31:39.831Z,24.69
2018-04-29T08:34:07.378Z,24.86
2018-04-29T08:36:34.880Z,24.94
2018-04-29T08:39:02.408Z,24.98
2018-04-29T08:41:29.929Z,25.15
2018-04-29T08:43:57.495Z,25.32
2018-04-29T08:46:24.987Z,25.35
2018-04-29T08:48:52.491Z,25.47
2018-04-29T08:51:20.003Z,25.51
2018-04-29T08:53:47.539Z,25.51
2018-04-29T08:56:15.357Z,25.60
2018-04-29T08:58:42.852Z,25.71
2018-04-29T09:01:10.397Z,25.88
2018-04-29T09:03:37.981Z,26.00
2018-04-29T09:06:05.503Z,26.06
2018-04-29T09:08:33.012Z,26.07
2018-04-29T09:11:00.538Z,26.17
2018-04-29T09:13:28.048Z,26.22
2018-04-29T09:15:55.571Z,26.37
2018-04-29T09:18:23.357Z,26.39
2018-04-29T09:20:50.896Z,26.49
2018-04-29T09:23:18.547Z,26.62
2018-04-29T09:25:46.060Z,26.56
2018-04-29T09:28:13.551Z,26.68
2018-04-29T09:30:41.044Z,26.80
2018-04-29T09:33:08.546Z,26.80
2018-04-29T09:35:36.026Z,26.71
2018-04-29T09:38:03.519Z,26.75
2018-04-29T09:40:31.153Z,26.79
2018-04-29T09:42:58.638Z,26.93
2018-04-29T09:45:26.136Z,26.98
2018-04-29T09:47:53.623Z,27.13
2018-04-29T09:50:21.180Z,27.24
2018-04-29T09:52:48.695Z,27.09
2018-04-29T09:55:16.235Z,27.13
2018-04-29T09:57:43.699Z,27.08
2018-04-29T10:00:11.262Z,27.14
2018-04-29T10:02:44.427Z,27.25
2018-04-29T10:05:11.944Z,27.26
2018-04-29T10:07:39.431Z,27.34
2018-04-29T10:10:06.916Z,27.47
2018-04-29T10:12:34.447Z,27.55
2018-04-29T10:15:01.984Z,27.67
2018-04-29T10:17:29.512Z,27.70
2018-04-29T10:19:57.007Z,27.93
2018-04-29T10:22:24.512Z,27.93
2018-04-29T10:24:52.093Z,28.08
2018-04-29T10:27:19.611Z,28.06
2018-04-29T10:29:47.150Z,28.10
2018-04-29T10:32:14.700Z,28.20
2018-04-29T10:34:42.215Z,28.25
2018-04-29T10:37:09.742Z,28.30
2018-04-29T10:39:37.396Z,28.52
2018-04-29T10:42:04.934Z,28.72
2018-04-29T10:44:32.431Z,28.73
2018-04-29T10:46:59.951Z,28.78
2018-04-29T10:49:27.503Z,28.84
2018-04-29T10:51:55.052Z,28.50
2018-04-29T10:54:22.531Z,28.57
2018-04-29T10:56:50.015Z,28.65
2018-04-29T10:59:17.559Z,28.55
2018-04-29T11:01:45.131Z,28.63
2018-04-29T11:04:12.618Z,28.79
2018-04-29T11:06:40.139Z,28.95
2018-04-29T11:09:07.682Z,29.04
2018-04-29T11:11:35.196Z,29.08
2018-04-29T11:14:02.747Z,29.23
2018-04-29T11:16:30.270Z,29.23
2018-04-29T11:18:57.879Z,29.48
2018-04-29T11:21:25.862Z,29.79
2018-04-29T11:23:53.347Z,29.78
2018-04-29T11:26:20.863Z,29.80
2018-04-29T11:28:48.389Z,29.93
2018-04-29T11:31:15.902Z,30.08
2018-04-29T11:33:43.440Z,30.20
2018-04-29T11:36:11.011Z,30.40
2018-04-29T11:38:38.505Z,30.38
2018-04-29T11:41:06.004Z,30.50
2018-04-29T11:43:34.894Z,30.64
2018-04-29T11:46:02.409Z,30.68
2018-04-29T11:48:30.616Z,30.85
2018-04-29T11:50:58.103Z,30.86
2018-04-29T11:53:25.690Z,31.02
2018-04-29T11:55:53.241Z,30.97
2018-04-29T11:58:20.811Z,31.14
2018-04-29T12:00:48.364Z,31.43
2018-04-29T12:03:15.952Z,31.53
2018-04-29T12:05:43.483Z,31.54
2018-04-29T12:08:11.029Z,31.58
2018-04-29T12:10:38.615Z,31.48
2018-04-29T12:13:06.171Z,31.51
2018-04-29T12:15:33.967Z,31.65
2018-04-29T12:18:01.527Z,31.84
2018-04-29T12:20:29.147Z,31.98
2018-04-29T12:22:56.696Z,32.06
2018-04-29T12:25:24.214Z,32.13
2018-04-29T12:27:51.745Z,32.07
2018-04-29T12:30:19.320Z,32.16
2018-04-29T12:32:46.816Z,32.36
2018-04-29T12:35:14.304Z,32.48
2018-04-29T12:37:41.895Z,32.61
2018-04-29T12:40:09.491Z,32.73
2018-04-29T12:42:37.071Z,32.93
2018-04-29T12:45:04.568Z,33.38
2018-04-29T12:47:32.044Z,33.52
2018-04-29T12:49:59.644Z,33.62
2018-04-29T12:52:27.118Z,33.62
2018-04-29T12:54:54.677Z,34.06
2018-04-29T12:57:22.167Z,34.00
2018-04-29T12:59:49.945Z,34.11
2018-04-29T13:02:17.422Z,34.24
2018-04-29T13:04:44.964Z,34.38
2018-04-29T13:07:12.523Z,34.10
2018-04-29T13:09:40.016Z,34.16
2018-04-29T13:12:07.504Z,33.90
2018-04-29T13:14:35.046Z,34.33
2018-04-29T13:17:02.566Z,34.11
2018-04-29T13:19:30.886Z,34.25
2018-04-29T13:21:58.395Z,34.63
2018-04-29T13:24:25.873Z,34.81
2018-04-29T13:26:53.347Z,34.76
2018-04-29T13:29:20.832Z,34.65
2018-04-29T13:31:48.373Z,34.15
2018-04-29T13:34:15.913Z,34.16
2018-04-29T13:36:43.457Z,34.30
2018-04-29T13:39:10.954Z,34.43
2018-04-29T13:41:38.467Z,34.43
2018-04-29T13:44:06.007Z,34.62
2018-04-29T13:46:33.505Z,34.57
2018-04-29T13:49:00.983Z,34.71
2018-04-29T13:51:28.523Z,35.09
2018-04-29T13:53:56.029Z,34.98
2018-04-29T13:56:23.628Z,35.22
2018-04-29T13:58:51.230Z,34.94
2018-04-29T14:01:18.754Z,34.92
2018-04-29T14:03:46.249Z,35.22
2018-04-29T14:06:13.812Z,35.83
2018-04-29T14:08:41.299Z,36.45
2018-04-29T14:11:08.799Z,36.63
2018-04-29T14:13:36.317Z,37.16
2018-04-29T14:16:05.919Z,37.54
2018-04-29T14:18:33.384Z,37.91
2018-04-29T14:21:00.896Z,38.58
2018-04-29T14:23:28.464Z,39.07
2018-04-29T14:25:56.055Z,39.03
2018-04-29T14:28:23.562Z,38.77
2018-04-29T14:30:51.050Z,38.83
2018-04-29T14:33:18.632Z,39.36
2018-04-29T14:35:46.140Z,40.08
2018-04-29T14:38:13.633Z,40.14
2018-04-29T14:40:41.116Z,39.77
2018-04-29T14:43:08.677Z,40.29
2018-04-29T14:45:36.182Z,40.41
2018-04-29T14:48:03.672Z,40.43
2018-04-29T14:50:31.181Z,40.62
2018-04-29T14:52:58.677Z,40.76
2018-04-29T14:55:26.177Z,40.91
2018-04-29T14:57:53.710Z,40.05
2018-04-29T15:00:21.198Z,39.46
2018-04-29T15:02:48.703Z,40.07
2018-04-29T15:05:16.189Z,40.53
2018-04-29T15:07:43.681Z,41.11
2018-04-29T15:10:11.192Z,41.24
2018-04-29T15:12:38.695Z,40.95
2018-04-29T15:15:06.187Z,40.77
2018-04-29T15:17:33.719Z,41.14
2018-04-29T15:20:01.257Z,39.52
2018-04-29T15:22:28.806Z,40.13
2018-04-29T15:24:56.260Z,40.42
2018-04-29T15:27:23.723Z,40.94
2018-04-29T15:29:51.522Z,41.56
2018-04-29T15:32:19.005Z,41.44
2018-04-29T15:34:46.516Z,40.83
2018-04-29T15:37:14.010Z,41.17
2018-04-29T15:39:41.494Z,40.54
2018-04-29T15:42:08.996Z,40.43
2018-04-29T15:44:36.472Z,40.79
2018-04-29T15:47:03.926Z,40.76
2018-04-29T15:49:31.416Z,40.45
2018-04-29T15:51:58.906Z,40.42
2018-04-29T15:54:26.376Z,40.09
2018-04-29T15:56:53.962Z,40.81
2018-04-29T15:59:21.430Z,40.74
2018-04-29T16:01:48.947Z,40.96
2018-04-29T16:04:16.446Z,41.37
2018-04-29T16:06:43.973Z,41.27
2018-04-29T16:09:11.542Z,41.15
2018-04-29T16:11:39.090Z,41.25
2018-04-29T16:14:06.576Z,41.20
2018-04-29T16:16:34.067Z,40.68
2018-04-29T16:19:01.557Z,40.65
2018-04-29T16:21:29.024Z,40.01
2018-04-29T16:23:56.552Z,39.89
2018-04-29T16:26:24.055Z,39.85
2018-04-29T16:28:51.534Z,39.56
2018-04-29T16:31:19.021Z,39.42
2018-04-29T16:33:46.523Z,39.05
2018-04-29T16:36:13.989Z,39.33
2018-04-29T16:38:41.494Z,39.32
2018-04-29T16:41:08.987Z,39.26
2018-04-29T16:43:36.843Z,39.13
2018-04-29T16:46:04.332Z,38.45
2018-04-29T16:48:31.894Z,37.65
2018-04-29T16:50:59.433Z,36.80
2018-04-29T16:53:26.974Z,37.07
2018-04-29T16:55:54.461Z,36.54
2018-04-29T16:58:21.969Z,36.28
2018-04-29T17:00:49.481Z,36.02
2018-04-29T17:03:17.041Z,35.67
2018-04-29T17:05:44.555Z,35.32
2018-04-29T17:08:12.330Z,35.02
2018-04-29T17:10:39.837Z,34.91
2018-04-29T17:13:07.306Z,34.75
2018-04-29T17:15:34.756Z,34.38
2018-04-29T17:18:02.933Z,33.72
2018-04-29T17:20:30.421Z,33.48
2018-04-29T17:22:57.901Z,33.09
2018-04-29T17:25:25.384Z,32.49
2018-04-29T17:27:52.844Z,31.84
2018-04-29T17:30:20.375Z,31.14
2018-04-29T17:32:47.875Z,30.70
2018-04-29T17:35:15.361Z,30.31
2018-04-29T17:37:42.860Z,29.65
2018-04-29T17:40:10.344Z,28.91
2018-04-29T17:42:37.841Z,28.49
2018-04-29T17:45:05.378Z,27.95
2018-04-29T17:47:33.007Z,27.54
2018-04-29T17:50:00.493Z,27.28
2018-04-29T17:52:28.003Z,26.97
2018-04-29T17:54:55.465Z,26.74
2018-04-29T17:57:23.133Z,26.51
2018-04-29T17:59:50.600Z,26.24
2018-04-29T18:02:18.064Z,26.04
2018-04-29T18:04:45.530Z,25.90
2018-04-29T18:07:13.059Z,25.66
2018-04-29T18:09:40.512Z,25.50
2018-04-29T18:12:08.000Z,25.35
2018-04-29T18:14:35.509Z,25.20
2018-04-29T18:17:03.038Z,25.09
2018-04-29T18:19:30.480Z,24.90
2018-04-29T18:21:57.957Z,24.78
2018-04-29T18:24:25.487Z,24.61
2018-04-29T18:26:52.935Z,24.48
2018-04-29T18:29:20.386Z,24.43
2018-04-29T18:31:47.842Z,24.30
2018-04-29T18:34:15.337Z,24.22
2018-04-29T18:36:42.859Z,24.16
2018-04-29T18:39:10.334Z,24.13
2018-04-29T18:41:37.875Z,24.05
2018-04-29T18:44:05.368Z,24.04
2018-04-29T18:46:34.472Z,23.96
2018-04-29T18:49:01.986Z,23.82
2018-04-29T18:51:29.638Z,23.74
2018-04-29T18:53:57.008Z,23.69
2018-04-29T18:56:24.546Z,23.60
2018-04-29T18:58:52.015Z,23.56
2018-04-29T19:01:19.516Z,23.55
2018-04-29T19:03:46.964Z,23.44
2018-04-29T19:06:14.424Z,23.37
2018-04-29T19:08:41.937Z,23.27
2018-04-29T19:11:09.526Z,23.20
2018-04-29T19:13:36.987Z,23.17
2018-04-29T19:16:04.463Z,23.06
2018-04-29T19:18:31.951Z,23.05
2018-04-29T19:20:59.507Z,22.96
2018-04-29T19:23:27.010Z,22.90
2018-04-29T19:25:54.499Z,22.93
2018-04-29T19:28:21.979Z,22.87
2018-04-29T19:30:49.437Z,22.86
2018-04-29T19:33:16.959Z,22.80
2018-04-29T19:35:44.429Z,22.74
2018-04-29T19:38:11.926Z,22.72
2018-04-29T19:43:13.208Z,22.59
2018-04-29T19:45:40.705Z,22.59
2018-04-29T19:48:08.181Z,22.48
2018-04-29T19:50:35.718Z,22.44
2018-04-29T19:53:03.197Z,22.42
2018-04-29T19:55:30.661Z,22.34
2018-04-29T19:57:58.133Z,22.25
2018-04-29T20:00:25.586Z,22.19
2018-04-29T20:02:53.157Z,22.19
2018-04-29T20:05:20.655Z,22.14
2018-04-29T20:07:48.147Z,22.15
2018-04-29T20:10:15.659Z,22.12
2018-04-29T20:12:43.146Z,22.07
2018-04-29T20:15:10.627Z,22.00
2018-04-29T20:17:38.130Z,21.95
2018-04-29T20:20:05.653Z,21.90
2018-04-29T20:22:33.166Z,21.83
2018-04-29T20:25:00.644Z,21.84
2018-04-29T20:27:28.140Z,21.75
2018-04-29T20:29:55.715Z,21.69
2018-04-29T20:32:33.770Z,21.67
2018-04-29T20:35:01.241Z,21.69
2018-04-29T20:37:28.698Z,21.59
2018-04-29T20:39:56.181Z,21.54
2018-04-29T20:42:23.653Z,21.54
2018-04-29T20:44:51.135Z,21.46
2018-04-29T20:47:18.622Z,21.40
2018-04-29T20:49:46.107Z,21.45
2018-04-29T20:52:13.577Z,21.45
2018-04-29T20:54:41.044Z,21.38
2018-04-29T20:57:08.587Z,21.36
2018-04-29T20:59:36.090Z,21.33
2018-04-29T21:02:03.607Z,21.40
2018-04-29T21:04:31.144Z,21.42
2018-04-29T21:06:58.622Z,21.37
2018-04-29T21:09:26.158Z,21.34
2018-04-29T21:11:53.634Z,21.27
2018-04-29T21:14:21.156Z,21.20
2018-04-29T21:16:48.764Z,21.16
2018-04-29T21:19:16.230Z,21.16
2018-04-29T21:21:43.748Z,21.16
2018-04-29T21:24:11.233Z,21.05
2018-04-29T21:26:38.695Z,21.09
2018-04-29T21:29:06.158Z,21.03
2018-04-29T21:31:33.624Z,21.00
2018-04-29T21:34:01.097Z,21.01
2018-04-29T21:36:28.551Z,21.01
2018-04-29T21:38:56.163Z,20.95
2018-04-29T21:41:23.622Z,20.95
2018-04-29T21:43:51.104Z,20.87
2018-04-29T21:46:18.568Z,20.84
2018-04-29T21:48:46.033Z,20.74
2018-04-29T21:51:13.555Z,20.63
2018-04-29T21:53:41.096Z,20.54
2018-04-29T21:56:08.598Z,20.48
2018-04-29T21:58:36.457Z,20.46
2018-04-29T22:01:03.955Z,20.49
2018-04-29T22:03:31.442Z,20.48
2018-04-29T22:05:58.977Z,20.40
2018-04-29T22:08:26.443Z,20.38
2018-04-29T22:10:53.916Z,20.35
2018-04-29T22:13:21.445Z,20.32
2018-04-29T22:15:48.957Z,20.24
2018-04-29T22:18:16.503Z,20.27
2018-04-29T22:20:43.980Z,20.28
2018-04-29T22:23:11.468Z,20.23
2018-04-29T22:25:38.991Z,20.12
2018-04-29T22:28:06.460Z,20.01
2018-04-29T22:30:33.961Z,19.90
2018-04-29T22:33:01.493Z,19.89
2018-04-29T22:35:28.969Z,19.97
2018-04-29T22:37:56.461Z,19.88
2018-04-29T22:40:24.017Z,19.84
2018-04-29T22:42:51.485Z,19.77
2018-04-29T22:45:22.824Z,19.74
2018-04-29T22:47:50.411Z,19.66
2018-04-29T22:50:17.872Z,19.59
2018-04-29T22:52:45.806Z,19.50
2018-04-29T22:55:13.272Z,19.40
2018-04-29T22:57:40.773Z,19.32
2018-04-29T23:00:08.343Z,19.23
2018-04-29T23:02:35.815Z,19.16
2018-04-29T23:05:03.381Z,19.08
2018-04-29T23:07:30.903Z,19.05
2018-04-29T23:09:58.359Z,18.99
2018-04-29T23:12:25.838Z,18.91
2018-04-29T23:14:53.305Z,18.82
2018-04-29T23:17:20.823Z,18.80
2018-04-29T23:19:48.366Z,18.68
2018-04-29T23:22:15.902Z,18.59
2018-04-29T23:24:43.438Z,18.47
2018-04-29T23:27:10.983Z,18.40
2018-04-29T23:29:38.976Z,18.35
2018-04-29T23:32:06.460Z,18.30
2018-04-29T23:34:33.940Z,18.32
2018-04-29T23:37:01.478Z,18.27
2018-04-29T23:39:29.023Z,18.21
2018-04-29T23:41:56.571Z,18.15
2018-04-29T23:44:24.023Z,18.24
2018-04-29T23:46:51.487Z,18.31
2018-04-29T23:49:18.971Z,18.27
2018-04-29T23:51:46.431Z,18.20
2018-04-29T23:54:13.925Z,18.18
2018-04-29T23:56:41.383Z,18.24
2018-04-29T23:59:08.869Z,18.21
